Time;durP1;ratioP1;P1;durP2;ratioP2;P2;SDS_P1;SDS_P2;PMS_P1;PMS_P2;Temp;Humidity;BMP_temperature;BMP_pressure;BME280_temperature;BME280_humidity;BME280_pressure;Samples;Min_cycle;Max_cycle;Signal;HPM_P1;HPM_P2
2023/06/14 00:02:03;;;;;;;12.20;9.85;;;;;;;19.31;100.00;101778.13;5051482;28;20017;-73
2023/06/14 00:04:28;;;;;;;13.70;11.70;;;;;;;19.34;100.00;101806.41;5052028;28;20167;-73
2023/06/14 00:06:56;;;;;;;11.57;10.38;;;;;;;19.31;100.00;101796.19;5051897;28;20017;-73
2023/06/14 00:09:22;;;;;;;12.32;8.57;;;;;;;19.17;100.00;101793.22;5050737;28;20057;-74
2023/06/14 00:11:47;;;;;;;9.73;8.25;;;;;;;18.76;100.00;101702.66;5051633;28;20075;-73
2023/06/14 00:14:13;;;;;;;10.30;8.05;;;;;;;19.12;100.00;101788.22;5051660;28;20033;-74
2023/06/14 00:16:42;;;;;;;11.88;7.32;;;;;;;19.07;100.00;101786.69;5051595;28;20017;-74
2023/06/14 00:19:08;;;;;;;9.88;7.68;;;;;;;19.08;100.00;101783.22;5051771;28;20091;-73
2023/06/14 00:21:34;;;;;;;8.57;7.00;;;;;;;18.85;100.00;101719.56;5051696;28;20021;-73
2023/06/14 00:24:01;;;;;;;7.30;6.50;;;;;;;19.28;100.00;101789.38;5033768;28;20032;-73
2023/06/14 00:29:47;;;;;;;8.57;6.85;;;;;;;18.68;100.00;101707.22;5052014;28;20044;-74
2023/06/14 00:35:35;;;;;;;13.77;6.78;;;;;;;18.40;100.00;101644.59;5051841;28;20086;-73
2023/06/14 00:38:01;;;;;;;7.40;6.68;;;;;;;18.50;100.00;101650.34;5051208;28;20025;-73
2023/06/14 00:40:27;;;;;;;7.53;6.50;;;;;;;18.99;100.00;101715.59;5051559;28;20558;-74
2023/06/14 00:42:52;;;;;;;8.05;6.38;;;;;;;18.62;100.00;101683.41;5049892;28;20120;-73
2023/06/14 00:48:40;;;;;;;7.78;6.75;;;;;;;18.48;100.00;101680.47;5051870;28;20032;-74
2023/06/14 00:54:33;;;;;;;9.02;7.53;;;;;;;18.92;100.00;101715.84;5041391;28;20156;-74
2023/06/14 00:56:59;;;;;;;8.30;7.50;;;;;;;18.80;100.00;101706.81;5053393;28;20045;-73
2023/06/14 00:59:25;;;;;;;8.15;6.40;;;;;;;18.60;100.00;101672.31;5054041;28;20490;-73
2023/06/14 01:05:12;;;;;;;8.60;7.70;;;;;;;18.62;100.00;101683.41;5055440;28;20095;-74
2023/06/14 01:07:47;;;;;;;9.80;7.80;;;;;;;18.85;100.00;101740.16;5053203;28;20075;-74
2023/06/14 01:10:20;;;;;;;10.05;7.95;;;;;;;18.84;100.00;101741.91;5053909;28;20037;-73
2023/06/14 01:13:02;;;;;;;9.23;7.60;;;;;;;18.52;100.00;101664.00;5054475;28;20025;-74
2023/06/14 01:15:30;;;;;;;11.15;8.52;;;;;;;18.64;100.00;101726.25;5055832;28;20032;-73
2023/06/14 01:21:22;;;;;;;10.20;7.63;;;;;;;18.95;100.00;101736.38;5056695;28;20035;-74
2023/06/14 01:23:52;;;;;;;11.25;9.02;;;;;;;18.62;100.00;101733.19;5055033;28;20107;-73
2023/06/14 01:26:26;;;;;;;8.85;7.93;;;;;;;18.24;100.00;101658.03;5053529;28;20459;-74
2023/06/14 01:32:13;;;;;;;11.02;8.50;;;;;;;17.98;100.00;101620.25;5054751;28;20517;-73
2023/06/14 01:38:03;;;;;;;8.93;8.02;;;;;;;18.67;100.00;101725.31;5054628;28;20048;-73
2023/06/14 01:40:31;;;;;;;10.73;8.63;;;;;;;18.31;100.00;101691.25;5054550;28;20054;-74
2023/06/14 01:42:58;;;;;;;9.95;8.60;;;;;;;18.35;100.00;101717.75;5053194;28;20457;-74
2023/06/14 01:45:24;;;;;;;11.90;9.63;;;;;;;17.92;100.00;101685.66;5054000;28;20025;-74
2023/06/14 01:47:50;;;;;;;12.85;8.85;;;;;;;17.60;100.00;101636.03;5036016;28;20028;-74
2023/06/14 01:50:15;;;;;;;10.40;8.45;;;;;;;18.04;100.00;101684.41;5052951;28;20021;-74
2023/06/14 01:52:41;;;;;;;9.80;8.80;;;;;;;17.75;100.00;101643.28;5054545;28;20127;-74
2023/06/14 01:58:28;;;;;;;10.20;9.10;;;;;;;18.02;100.00;101704.22;5054489;28;20398;-74
2023/06/14 02:00:55;;;;;;;9.82;8.82;;;;;;;18.72;100.00;101759.50;5052415;28;20025;-74
2023/06/14 02:06:42;;;;;;;12.02;9.52;;;;;;;18.47;100.00;101768.91;5054026;28;20047;-74
2023/06/14 02:09:07;;;;;;;10.15;8.70;;;;;;;18.14;100.00;101714.97;5052401;28;20029;-74
2023/06/14 02:11:33;;;;;;;10.32;8.95;;;;;;;17.91;100.00;101701.13;5052067;28;20028;-74
2023/06/14 02:13:59;;;;;;;10.65;9.60;;;;;;;18.32;100.00;101796.00;5053775;28;20509;-75
2023/06/14 02:19:46;;;;;;;13.13;9.07;;;;;;;18.00;100.00;101701.69;5054170;28;20043;-73
2023/06/14 02:22:14;;;;;;;12.00;9.57;;;;;;;18.26;100.00;101780.72;5053319;28;20033;-75
2023/06/14 02:24:40;;;;;;;10.70;9.60;;;;;;;17.65;100.00;101667.63;5053432;28;20413;-75
2023/06/14 02:27:06;;;;;;;10.10;8.90;;;;;;;18.21;100.00;101792.88;5052373;28;20116;-74
2023/06/14 02:32:53;;;;;;;11.75;10.30;;;;;;;17.51;100.00;101644.88;5054050;28;20075;-75
2023/06/14 02:38:40;;;;;;;14.93;11.20;;;;;;;17.99;100.00;101761.78;5053787;28;20123;-74
2023/06/14 02:41:06;;;;;;;11.48;10.13;;;;;;;17.75;100.00;101741.91;5051840;28;20021;-74
2023/06/14 02:43:31;;;;;;;11.85;9.80;;;;;;;17.55;100.00;101718.47;5053032;28;20032;-73
2023/06/14 02:45:57;;;;;;;11.13;9.90;;;;;;;18.04;100.00;101795.13;5052186;28;20044;-74
2023/06/14 02:51:44;;;;;;;14.23;8.95;;;;;;;17.71;100.00;101754.91;5053657;28;20103;-73
2023/06/14 02:57:50;;;;;;;12.07;10.23;;;;;;;17.21;100.00;101744.25;5044440;28;20415;-74
2023/06/14 03:00:16;;;;;;;11.60;9.85;;;;;;;16.79;100.00;101690.59;5052495;28;20045;-73
2023/06/14 03:06:04;;;;;;;14.43;9.48;;;;;;;17.33;100.00;101767.06;5053229;28;20062;-73
2023/06/14 03:11:53;;;;;;;13.50;10.90;;;;;;;16.66;100.00;101708.03;5053213;28;20039;-73
2023/06/14 03:14:19;;;;;;;10.70;9.45;;;;;;;16.78;100.00;101740.25;5033915;28;20021;-74
2023/06/14 03:16:45;;;;;;;12.60;9.20;;;;;;;16.90;100.00;101737.38;5051680;28;20124;-73
2023/06/14 03:19:11;;;;;;;18.08;8.75;;;;;;;17.23;100.00;101759.66;5051313;28;20025;-73
2023/06/14 03:24:59;;;;;;;13.90;9.57;;;;;;;17.50;100.00;101755.50;5052810;28;20039;-73
2023/06/14 03:27:25;;;;;;;10.90;9.65;;;;;;;17.75;100.00;101792.53;5051014;28;20622;-74
2023/06/14 03:29:51;;;;;;;13.27;10.35;;;;;;;17.46;100.00;101806.16;5052602;28;20025;-74
2023/06/14 03:32:16;;;;;;;13.02;10.00;;;;;;;16.99;100.00;101726.88;5050898;28;20036;-74
2023/06/14 03:34:42;;;;;;;13.98;9.82;;;;;;;16.60;100.00;101672.22;5052927;28;20083;-76
2023/06/14 03:37:08;;;;;;;11.35;9.57;;;;;;;16.84;100.00;101720.41;5051194;28;20056;-74
2023/06/14 03:39:33;;;;;;;17.73;9.57;;;;;;;16.96;100.00;101735.50;5051040;28;20021;-75
2023/06/14 03:41:59;;;;;;;10.23;9.13;;;;;;;17.40;100.00;101808.06;5052260;28;20509;-74
2023/06/14 03:47:46;;;;;;;11.27;9.48;;;;;;;16.81;100.00;101717.94;5052663;28;20497;-74
2023/06/14 03:50:12;;;;;;;17.52;9.07;;;;;;;17.15;100.00;101746.97;5050684;28;20029;-76
2023/06/14 03:52:37;;;;;;;13.57;9.65;;;;;;;17.25;100.00;101804.19;5051196;28;20533;-73
2023/06/14 03:55:03;;;;;;;13.85;9.98;;;;;;;17.37;100.00;101795.28;5049906;28;20025;-74
2023/06/14 04:01:08;;;;;;;13.30;10.10;;;;;;;17.63;100.00;101770.56;5041047;28;20060;-75
2023/06/14 04:03:34;;;;;;;11.43;9.98;;;;;;;17.64;100.00;101779.13;5051533;28;20041;-74
2023/06/14 04:09:21;;;;;;;13.40;10.57;;;;;;;17.72;100.00;101746.31;5052218;28;20048;-73
2023/06/14 04:15:09;;;;;;;15.10;10.35;;;;;;;18.24;100.00;101802.25;5051887;28;20082;-73
2023/06/14 04:17:34;;;;;;;11.15;10.00;;;;;;;18.05;100.00;101807.94;5050900;28;20056;-72
2023/06/14 04:20:01;;;;;;;12.10;10.13;;;;;;;18.06;100.00;101827.63;5051787;28;20136;-73
2023/06/14 04:22:30;;;;;;;12.75;10.60;;;;;;;18.18;100.00;101818.72;5051443;28;20040;-73
2023/06/14 04:28:17;;;;;;;17.75;14.00;;;;;;;18.40;100.00;101818.94;5051651;28;20039;-72
2023/06/14 04:34:05;;;;;;;13.15;9.50;;;;;;;18.59;100.00;101753.91;5056136;28;20047;-75
2023/06/14 04:39:52;;;;;;;12.77;9.70;;;;;;;18.77;100.00;101775.66;5056766;28;20036;-76
2023/06/14 04:42:20;;;;;;;10.50;8.40;;;;;;;19.31;100.00;101860.66;5037494;28;20025;-76
2023/06/14 04:44:47;;;;;;;13.35;8.32;;;;;;;19.29;100.00;101850.41;5038612;28;20024;-75
2023/06/14 04:47:14;;;;;;;12.27;8.63;;;;;;;19.40;100.00;101860.38;5054520;28;20097;-74
2023/06/14 04:49:40;;;;;;;11.52;9.30;;;;;;;19.43;100.00;101803.53;5037574;28;20105;-74
2023/06/14 04:52:07;;;;;;;9.88;8.75;;;;;;;19.87;100.00;101875.03;5053653;28;20055;-73
2023/06/14 04:54:33;;;;;;;7.30;6.57;;;;;;;20.32;100.00;101891.47;5054478;28;20025;-73
2023/06/14 05:00:21;;;;;;;8.25;7.05;;;;;;;20.09;100.00;101808.78;5053313;28;20103;-76
2023/06/14 05:06:08;;;;;;;8.45;6.35;;;;;;;20.64;100.00;101785.09;5055614;28;20067;-74
2023/06/14 05:08:33;;;;;;;9.68;6.15;;;;;;;20.73;100.00;101833.88;5053939;28;20056;-74
2023/06/14 05:10:59;;;;;;;8.68;6.30;;;;;;;20.51;100.00;101759.81;5053681;28;20059;-75
2023/06/14 05:16:48;;;;;;;7.47;6.47;;;;;;;21.37;100.00;101730.28;5055494;28;20086;-75
2023/06/14 05:19:14;;;;;;;7.55;6.43;;;;;;;20.80;100.00;101776.72;5054986;28;20111;-74
2023/06/14 05:21:39;;;;;;;10.77;6.70;;;;;;;21.34;100.00;101756.28;5053885;28;20048;-74
2023/06/14 05:24:05;;;;;;;7.63;6.07;;;;;;;21.95;100.00;101801.84;5053664;28;20021;-74
2023/06/14 05:26:30;;;;;;;8.18;6.05;;;;;;;21.35;100.00;101722.56;5054792;28;20020;-74
2023/06/14 05:28:56;;;;;;;8.95;6.30;;;;;;;22.10;100.00;101779.59;5054431;28;20120;-74
2023/06/14 05:31:23;;;;;;;10.90;6.43;;;;;;;21.70;100.00;101699.41;5054571;28;20532;-74
2023/06/14 05:37:10;;;;;;;13.23;6.15;;;;;;;22.09;100.00;101677.69;5054733;28;20052;-75
2023/06/14 05:39:36;;;;;;;10.45;6.35;;;;;;;21.96;100.00;101686.97;5053217;28;20463;-73
2023/06/14 05:42:01;;;;;;;11.63;6.07;;;;;;;22.79;100.00;101737.31;5054185;28;20391;-74
2023/06/14 05:44:26;;;;;;;8.77;5.85;;;;;;;23.00;100.00;101709.41;5057496;28;20032;-74
2023/06/14 05:46:52;;;;;;;7.75;5.78;;;;;;;23.01;100.00;101700.72;5059611;28;20060;-73
2023/06/14 05:49:17;;;;;;;6.93;5.93;;;;;;;23.04;100.00;101704.00;5053912;28;20495;-74
2023/06/14 05:51:43;;;;;;;12.05;6.95;;;;;;;22.47;100.00;101616.16;5060857;28;20025;-74
2023/06/14 05:54:08;;;;;;;9.68;6.95;;;;;;;23.03;100.00;101657.38;5057018;28;20091;-74
2023/06/14 05:56:34;;;;;;;11.40;7.25;;;;;;;22.83;100.00;101652.38;5053580;28;20024;-75
2023/06/14 05:59:00;;;;;;;8.93;6.63;;;;;;;22.74;100.00;101585.44;5053465;28;20028;-75
2023/06/14 06:01:26;;;;;;;11.95;7.65;;;;;;;22.58;100.00;101626.84;5053120;28;20045;-75
2023/06/14 06:03:53;;;;;;;10.93;6.03;;;;;;;23.49;100.00;101641.03;5054664;28;20029;-75
2023/06/14 06:06:19;;;;;;;8.13;6.25;;;;;;;22.59;100.00;101604.34;5054281;28;20086;-74
2023/06/14 06:08:44;;;;;;;6.43;5.28;;;;;;;21.73;100.00;101492.94;5036548;28;20932;-74
2023/06/14 06:11:10;;;;;;;9.10;5.72;;;;;;;23.02;100.00;101588.19;5054409;28;20025;-74
2023/06/14 06:13:36;;;;;;;5.90;5.35;;;;;;;22.90;100.00;101521.41;5053184;28;20486;-74
2023/06/14 06:16:02;;;;;;;7.80;5.70;;;;;;;24.14;100.00;101572.38;5052885;28;20021;-74
2023/06/14 06:18:28;;;;;;;7.65;6.13;;;;;;;24.25;100.00;101540.50;5053989;28;20455;-75
2023/06/14 06:20:53;;;;;;;10.68;5.63;;;;;;;23.58;100.00;101512.41;5054048;28;20060;-75
2023/06/14 06:23:18;;;;;;;6.82;4.93;;;;;;;22.66;100.00;101470.88;5052365;28;20028;-75
2023/06/14 06:25:44;;;;;;;5.68;5.00;;;;;;;23.62;100.00;101530.34;5052239;28;20430;-75
2023/06/14 06:28:10;;;;;;;5.25;4.75;;;;;;;24.19;100.00;101520.06;5052436;28;20109;-74
2023/06/14 06:30:36;;;;;;;5.60;4.90;;;;;;;23.73;100.00;101501.97;5052560;28;20408;-74
2023/06/14 06:36:23;;;;;;;5.32;4.80;;;;;;;24.19;100.00;101403.09;5054032;28;20032;-74
2023/06/14 06:38:49;;;;;;;6.63;4.65;;;;;;;23.85;100.00;101405.09;5052981;28;20029;-73
2023/06/14 06:41:15;;;;;;;4.85;4.25;;;;;;;24.13;100.00;101378.31;5053517;28;20441;-74
2023/06/14 06:43:41;;;;;;;5.72;3.83;;;;;;;24.31;100.00;101298.31;5053172;28;20033;-74
2023/06/14 06:46:06;;;;;;;7.15;4.03;;;;;;;24.86;100.00;101271.25;5051712;28;20112;-73
2023/06/14 06:48:32;;;;;;;6.70;4.30;;;;;;;24.86;100.00;101263.44;5051549;28;20021;-74
2023/06/14 06:50:57;;;;;;;4.75;4.03;;;;;;;24.59;100.00;101272.19;5051860;28;20031;-75
2023/06/14 06:53:23;;;;;;;5.40;4.50;;;;;;;24.60;100.00;101170.63;5050609;28;20029;-75
2023/06/14 06:59:10;;;;;;;;;;;;;;;25.56;100.00;101103.19;5053889;28;20539;-74
2023/06/14 07:05:16;;;;;;;3.72;3.42;;;;;;;25.58;100.00;100952.78;5035806;28;20113;-75
2023/06/14 07:11:03;;;;;;;4.97;3.53;;;;;;;24.94;100.00;100872.50;5053490;28;20039;-73
2023/06/14 07:13:28;;;;;;;4.53;3.58;;;;;;;25.52;100.00;100836.00;5051656;28;20111;-73
2023/06/14 07:15:57;;;;;;;6.15;3.58;;;;;;;25.27;100.00;100801.50;5053007;28;20395;-74
2023/06/14 07:18:22;;;;;;;8.77;3.75;;;;;;;25.77;100.00;100781.03;5053072;28;20055;-74
2023/06/14 07:24:10;;;;;;;5.32;3.40;;;;;;;25.59;100.00;100626.16;5053138;28;20056;-73
2023/06/14 07:26:35;;;;;;;4.50;3.40;;;;;;;26.14;100.00;100633.00;5050986;28;20456;-74
2023/06/14 07:29:01;;;;;;;5.30;3.30;;;;;;;25.23;100.00;100498.88;5052739;28;20028;-74
2023/06/14 07:31:27;;;;;;;5.18;3.28;;;;;;;25.52;100.00;100515.59;5051553;28;20036;-75
2023/06/14 07:33:52;;;;;;;6.03;3.58;;;;;;;26.30;100.00;100456.03;5050886;28;20025;-73
2023/06/14 07:36:18;;;;;;;4.78;3.50;;;;;;;25.46;100.00;100450.97;5034055;28;20036;-74
2023/06/14 07:38:43;;;;;;;4.45;3.22;;;;;;;26.14;100.00;100426.19;5051027;28;20489;-74
2023/06/14 07:41:09;;;;;;;5.43;3.08;;;;;;;26.54;100.00;100327.88;5052886;28;20083;-74
2023/06/14 07:43:34;;;;;;;7.20;3.67;;;;;;;26.62;100.00;100330.63;5051111;28;20021;-75
2023/06/14 07:49:21;;;;;;;5.68;3.28;;;;;;;26.42;100.00;100271.56;5052494;28;20081;-73
2023/06/14 07:51:48;;;;;;;7.50;3.30;;;;;;;27.08;100.00;100234.16;5051579;28;20033;-72
2023/06/14 07:54:13;;;;;;;6.38;3.38;;;;;;;26.03;100.00;100196.84;5052319;28;20017;-72
2023/06/14 07:56:39;;;;;;;6.55;3.30;;;;;;;26.02;100.00;100227.28;5052453;28;20025;-73
2023/06/14 07:59:05;;;;;;;4.13;3.17;;;;;;;26.48;100.00;100075.38;5050146;28;20108;-73
2023/06/14 08:01:31;;;;;;;7.88;3.55;;;;;;;26.73;100.00;100126.13;5052011;28;20020;-74
2023/06/14 08:03:57;;;;;;;5.60;3.78;;;;;;;25.32;100.00;100138.78;5035096;28;20119;-74
2023/06/14 08:06:22;;;;;;;4.80;3.55;;;;;;;25.68;100.00;100215.56;5057001;28;20041;-73
2023/06/14 08:08:47;;;;;;;6.43;3.22;;;;;;;26.60;100.00;100269.94;5056693;28;20025;-74
2023/06/14 08:11:13;;;;;;;4.13;3.63;;;;;;;25.64;100.00;100388.72;5057181;28;20395;-74
2023/06/14 08:13:38;;;;;;;5.57;3.50;;;;;;;25.21;100.00;100554.59;5058183;28;20025;-73
2023/06/14 08:16:05;;;;;;;8.15;3.90;;;;;;;26.67;100.00;100688.53;5058666;28;20076;-75
2023/06/14 08:18:30;;;;;;;4.32;3.50;;;;;;;26.60;100.00;100997.97;5057015;28;20023;-73
2023/06/14 08:20:57;;;;;;;4.40;3.28;;;;;;;26.15;100.00;101301.41;5058237;28;20025;-73
2023/06/14 08:23:22;;;;;;;5.68;3.75;;;;;;;25.70;100.00;101660.75;5058648;28;20036;-74
2023/06/14 08:29:09;;;;;;;4.68;3.20;;;;;;;26.08;100.00;102153.00;5058804;28;20497;-73
2023/06/14 08:34:56;;;;;;;3.97;3.40;;;;;;;25.41;100.00;102403.47;5058851;28;20078;-73
2023/06/14 08:37:22;;;;;;;4.53;3.30;;;;;;;25.20;100.00;102526.94;5057192;28;20025;-75
2023/06/14 08:39:47;;;;;;;5.28;3.20;;;;;;;24.89;100.00;103004.06;5057165;28;20025;-73
2023/06/14 08:42:14;;;;;;;5.13;3.75;;;;;;;25.15;100.00;103001.28;5057896;28;20368;-72
2023/06/14 08:48:02;;;;;;;4.57;3.10;;;;;;;26.37;100.00;102922.06;5058882;28;20040;-75
2023/06/14 08:50:29;;;;;;;4.20;3.30;;;;;;;26.80;100.00;102825.09;5058881;28;20079;-75
2023/06/14 08:53:00;;;;;;;4.13;3.47;;;;;;;27.74;100.00;102857.66;5057463;28;20020;-75
2023/06/14 08:55:27;;;;;;;3.50;3.10;;;;;;;26.88;100.00;102610.53;5057526;28;20033;-74
2023/06/14 08:57:55;;;;;;;6.43;3.38;;;;;;;26.84;100.00;102515.81;5057033;28;20275;-73
2023/06/14 09:00:22;;;;;;;5.97;3.40;;;;;;;26.68;100.00;102470.56;5057859;28;20022;-73
2023/06/14 09:02:48;;;;;;;6.22;3.60;;;;;;;25.71;100.00;102271.56;5057266;28;20029;-73
2023/06/14 09:08:56;;;;;;;4.80;3.30;;;;;;;26.93;100.00;102113.06;5049970;28;20545;-74
2023/06/14 09:11:22;;;;;;;4.78;3.10;;;;;;;27.50;100.00;102105.94;5058162;28;20028;-72
2023/06/14 09:13:49;;;;;;;3.35;3.05;;;;;;;26.59;100.00;102122.06;5058383;28;20033;-73
2023/06/14 09:19:36;;;;;;;5.45;3.22;;;;;;;26.42;100.00;102351.09;5055123;28;20113;-73
2023/06/14 09:22:03;;;;;;;6.05;3.10;;;;;;;26.46;100.00;102472.66;5054415;28;20068;-74
2023/06/14 09:24:28;;;;;;;6.50;3.60;;;;;;;27.83;100.00;102479.59;5053676;28;20147;-74
2023/06/14 09:26:54;;;;;;;7.55;4.18;;;;;;;26.23;100.00;102298.22;5055334;28;20112;-73
2023/06/14 09:29:19;;;;;;;4.75;3.58;;;;;;;26.77;100.00;102292.50;5055256;28;20049;-73
2023/06/14 09:31:47;;;;;;;6.25;4.63;;;;;;;26.05;100.00;102341.78;5055244;28;20020;-74
2023/06/14 09:34:13;;;;;;;5.45;3.85;;;;;;;25.92;100.00;101729.75;5055344;28;20037;-75
2023/06/14 09:36:40;;;;;;;6.57;4.15;;;;;;;25.50;100.00;101569.97;5037389;28;20033;-74
2023/06/14 09:39:07;;;;;;;3.97;3.58;;;;;;;26.45;100.00;101681.00;5055167;28;20025;-75
2023/06/14 09:41:38;;;;;;;5.25;3.78;;;;;;;26.58;100.00;101581.84;5054681;28;20021;-72
2023/06/14 09:44:09;;;;;;;3.80;3.25;;;;;;;27.08;100.00;101468.59;5053404;28;20564;-73
2023/06/14 09:49:55;;;;;;;5.93;3.47;;;;;;;26.28;100.00;100069.38;5054357;28;20281;-71
2023/06/14 09:52:22;;;;;;;4.78;3.50;;;;;;;26.59;100.00;100069.97;5053587;28;20111;-68
2023/06/14 09:54:52;;;;;;;5.65;3.30;;;;;;;26.89;100.00;99993.22;5052621;28;20028;-71
2023/06/14 09:57:22;;;;;;;6.55;3.65;;;;;;;27.90;100.00;99902.19;5053894;28;20032;-74
2023/06/14 09:59:48;;;;;;;7.35;3.78;;;;;;;27.34;100.00;100266.56;5053260;28;20029;-72
2023/06/14 10:02:37;;;;;;;5.55;3.35;;;;;;;27.13;100.00;100463.53;5054013;28;20044;-73
2023/06/14 10:05:08;;;;;;;8.38;3.80;;;;;;;26.66;100.00;100422.50;5052541;28;20025;-74
2023/06/14 10:07:52;;;;;;;5.00;3.22;;;;;;;26.35;100.00;100520.84;5054205;28;20028;-72
2023/06/14 10:10:17;;;;;;;6.90;3.45;;;;;;;26.53;100.00;100433.16;5054065;28;20052;-72
2023/06/14 10:12:43;;;;;;;4.45;3.35;;;;;;;26.86;100.00;100482.44;5038903;28;20025;-72
2023/06/14 10:15:12;;;;;;;12.68;5.60;;;;;;;26.49;100.00;100497.00;5064206;28;20050;-73
2023/06/14 10:17:55;;;;;;;7.82;4.15;;;;;;;27.15;100.00;100561.69;5062874;28;20494;-72
2023/06/14 10:20:35;;;;;;;5.95;3.40;;;;;;;27.51;100.00;100522.84;5055376;28;20063;-72
2023/06/14 10:23:11;;;;;;;7.25;3.97;;;;;;;27.13;100.00;100526.22;5052678;28;20500;-72
2023/06/14 10:25:37;;;;;;;4.47;3.15;;;;;;;27.16;100.00;100495.44;5053968;28;20025;-72
2023/06/14 10:28:14;;;;;;;5.53;3.30;;;;;;;27.16;100.00;100380.50;5051163;28;20105;-72
2023/06/14 10:30:54;;;;;;;3.40;3.10;;;;;;;27.48;100.00;100367.16;5052093;28;20029;-72
2023/06/14 10:33:20;;;;;;;8.05;3.13;;;;;;;28.01;100.00;100352.56;5052958;28;20028;-72
2023/06/14 10:35:45;;;;;;;3.50;2.90;;;;;;;28.38;100.00;100294.94;5053158;28;20035;-72
2023/06/14 10:38:14;;;;;;;5.03;3.20;;;;;;;29.29;100.00;100173.22;5052454;28;20033;-72
2023/06/14 10:40:41;;;;;;;4.18;3.08;;;;;;;28.92;100.00;100094.94;5052709;28;20126;-72
2023/06/14 10:43:23;;;;;;;4.82;3.20;;;;;;;28.42;100.00;100084.34;5053130;28;20112;-72
2023/06/14 10:46:22;;;;;;;3.30;2.70;;;;;;;30.12;100.00;99850.41;5053234;28;20044;-73
2023/06/14 10:48:48;;;;;;;4.80;3.28;;;;;;;30.17;100.00;99467.63;5053030;28;20028;-72
2023/06/14 10:54:35;;;;;;;4.22;2.95;;;;;;;28.96;100.00;99316.72;5053187;28;20039;-71
2023/06/14 10:57:01;;;;;;;6.80;2.90;;;;;;;30.12;100.00;99407.03;5051880;28;20028;-73
2023/06/14 10:59:26;;;;;;;5.70;3.17;;;;;;;27.56;100.00;99410.97;5052931;28;20076;-73
2023/06/14 11:02:14;;;;;;;3.97;2.90;;;;;;;28.07;100.00;99530.00;5051528;28;20025;-73
2023/06/14 11:04:52;;;;;;;4.53;2.90;;;;;;;28.82;100.00;99570.63;5052701;28;20033;-73
2023/06/14 11:07:42;;;;;;;4.13;3.20;;;;;;;28.49;100.00;99597.81;5051112;28;20131;-73
2023/06/14 11:10:37;;;;;;;4.95;3.00;;;;;;;28.16;100.00;99617.97;5052839;28;20036;-73
2023/06/14 11:16:27;;;;;;;6.57;3.20;;;;;;;27.52;100.00;99748.44;5052939;28;20174;-73
2023/06/14 11:22:15;;;;;;;;;;;;;;;27.06;100.00;99843.63;5052815;28;20052;-73
2023/06/14 11:24:40;;;;;;;3.25;2.88;;;;;;;27.63;100.00;99858.78;5050633;28;20371;-74
2023/06/14 11:27:06;;;;;;;3.90;3.50;;;;;;;27.24;100.00;99776.50;5051744;28;20028;-73
2023/06/14 11:29:31;;;;;;;4.15;3.13;;;;;;;27.65;100.00;99809.78;5051996;28;20033;-73
2023/06/14 11:31:57;;;;;;;4.78;3.10;;;;;;;28.10;100.00;99857.41;5050263;28;20094;-73
2023/06/14 11:34:22;;;;;;;5.13;3.33;;;;;;;27.68;100.00;99834.78;5052188;28;20068;-73
2023/06/14 11:36:48;;;;;;;5.72;3.28;;;;;;;27.21;100.00;99821.22;5051679;28;20029;-73
2023/06/14 11:39:13;;;;;;;3.88;3.33;;;;;;;27.23;100.00;99816.66;5051723;28;20463;-73
2023/06/14 11:41:44;;;;;;;5.05;3.30;;;;;;;27.76;100.00;99851.31;5050418;28;20086;-73
2023/06/14 11:44:10;;;;;;;4.50;3.20;;;;;;;28.44;100.00;99812.88;5050973;28;20473;-73
2023/06/14 11:46:36;;;;;;;4.75;3.17;;;;;;;27.81;100.00;99783.69;5050946;28;20111;-74
2023/06/14 11:49:04;;;;;;;5.00;3.38;;;;;;;27.89;100.00;99856.13;5051158;28;20024;-72
2023/06/14 11:51:32;;;;;;;3.67;2.95;;;;;;;27.80;100.00;99885.81;5051799;28;20102;-73
2023/06/14 11:53:58;;;;;;;3.92;3.13;;;;;;;27.38;100.00;99873.44;5050647;28;20465;-71
2023/06/14 11:59:45;;;;;;;;;;;;;;;27.64;100.00;99924.91;5052556;28;20054;-72
2023/06/14 12:05:34;;;;;;;6.07;3.20;;;;;;;27.62;100.00;99906.78;5051613;28;20032;-73
2023/06/14 12:08:02;;;;;;;3.70;3.30;;;;;;;28.03;100.00;99886.94;5050097;28;20115;-72
2023/06/14 12:10:29;;;;;;;3.53;3.05;;;;;;;27.32;100.00;99831.41;5051853;28;20419;-72
2023/06/14 12:13:00;;;;;;;4.13;3.50;;;;;;;27.17;100.00;99844.22;5051221;28;20040;-72
2023/06/14 12:18:47;;;;;;;5.28;3.28;;;;;;;27.31;100.00;99812.34;5052001;28;20051;-72
2023/06/14 12:21:12;;;;;;;4.35;3.42;;;;;;;28.33;100.00;99805.31;5050078;28;20456;-73
2023/06/14 12:23:48;;;;;;;5.38;3.20;;;;;;;28.41;100.00;99784.41;5051105;28;20155;-71
2023/06/14 12:26:18;;;;;;;3.80;3.20;;;;;;;27.35;100.00;99753.63;5051802;28;20021;-71
2023/06/14 12:28:47;;;;;;;5.00;3.40;;;;;;;27.84;100.00;99820.00;5049910;28;20016;-71
2023/06/14 12:31:14;;;;;;;3.65;3.17;;;;;;;27.51;100.00;99754.66;5051134;28;20021;-71
2023/06/14 12:33:40;;;;;;;3.28;3.00;;;;;;;27.21;100.00;99811.63;5050368;28;20487;-71
2023/06/14 12:36:07;;;;;;;4.55;2.80;;;;;;;26.86;100.00;99785.53;5051618;28;20371;-71
2023/06/14 12:38:33;;;;;;;4.38;2.95;;;;;;;27.16;100.00;99842.56;5051078;28;20025;-70
2023/06/14 12:40:59;;;;;;;4.55;3.00;;;;;;;26.82;100.00;99789.41;5049444;28;20032;-71
2023/06/14 12:43:24;;;;;;;3.20;2.65;;;;;;;27.11;100.00;99851.81;5050099;28;20464;-71
2023/06/14 12:45:50;;;;;;;3.97;2.85;;;;;;;27.18;100.00;99845.00;5049223;28;20072;-71
2023/06/14 12:48:15;;;;;;;3.97;2.90;;;;;;;26.98;100.00;99792.16;5049564;28;20376;-71
2023/06/14 12:50:41;;;;;;;3.67;2.97;;;;;;;27.00;100.00;99826.78;5049697;28;20067;-70
2023/06/14 12:53:07;;;;;;;3.55;3.00;;;;;;;27.56;100.00;99836.00;5055086;28;20024;-71
2023/06/14 12:55:33;;;;;;;4.72;3.25;;;;;;;27.24;100.00;99808.69;5054503;28;20033;-73
2023/06/14 12:57:58;;;;;;;4.07;3.25;;;;;;;27.20;100.00;99846.50;5054841;28;20045;-72
2023/06/14 13:00:25;;;;;;;5.30;3.42;;;;;;;27.67;100.00;99885.41;5054727;28;20036;-71
2023/06/14 13:06:13;;;;;;;3.33;3.03;;;;;;;28.00;100.00;99848.03;5055268;28;20027;-71
2023/06/14 13:08:38;;;;;;;4.22;3.10;;;;;;;27.47;100.00;99863.88;5054911;28;20390;-72
2023/06/14 13:11:04;;;;;;;4.60;3.50;;;;;;;27.62;100.00;99793.56;5054574;28;20538;-74
2023/06/14 13:13:29;;;;;;;5.20;4.70;;;;;;;28.65;100.00;99830.75;5053285;28;20028;-72
2023/06/14 13:15:55;;;;;;;4.18;3.10;;;;;;;29.33;100.00;99826.03;5054226;28;20029;-72
2023/06/14 13:18:20;;;;;;;4.13;2.65;;;;;;;28.77;100.00;99819.81;5054227;28;20111;-72
2023/06/14 13:20:47;;;;;;;3.17;2.88;;;;;;;29.27;100.00;99805.72;5055110;28;20025;-72
2023/06/14 13:26:34;;;;;;;5.15;4.20;;;;;;;29.93;100.00;99832.47;5054949;28;20048;-72
2023/06/14 13:28:59;;;;;;;4.22;3.20;;;;;;;29.01;100.00;99822.44;5053853;28;20347;-71
2023/06/14 13:31:25;;;;;;;8.45;3.72;;;;;;;28.40;100.00;99763.63;5054711;28;20086;-71
2023/06/14 13:33:51;;;;;;;4.20;3.25;;;;;;;28.01;100.00;99798.19;5054467;28;20025;-72
2023/06/14 13:36:18;;;;;;;3.65;3.30;;;;;;;28.02;100.00;99815.53;5054026;28;20399;-71
2023/06/14 13:38:43;;;;;;;3.90;3.13;;;;;;;27.84;100.00;99772.94;5054322;28;20076;-71
2023/06/14 13:41:09;;;;;;;5.15;3.08;;;;;;;27.60;100.00;99787.69;5052634;28;20036;-72
2023/06/14 13:43:34;;;;;;;3.45;3.15;;;;;;;27.71;100.00;99843.09;5052910;28;20024;-72
2023/06/14 13:46:00;;;;;;;5.32;3.35;;;;;;;27.32;100.00;99852.31;5052680;28;20063;-71
2023/06/14 13:48:25;;;;;;;4.70;4.30;;;;;;;27.17;100.00;99853.84;5052643;28;20035;-71
2023/06/14 13:50:51;;;;;;;6.65;3.50;;;;;;;27.32;100.00;99891.50;5053696;28;20017;-71
2023/06/14 13:56:38;;;;;;;7.88;3.83;;;;;;;27.44;100.00;99998.25;5054037;28;20071;-73
2023/06/14 13:59:04;;;;;;;6.85;4.30;;;;;;;27.23;100.00;99971.56;5053979;28;20083;-72
2023/06/14 14:01:30;;;;;;;8.48;5.43;;;;;;;27.57;100.00;100025.78;5051614;28;20406;-71
2023/06/14 14:03:55;;;;;;;6.63;3.33;;;;;;;27.22;100.00;99992.59;5052687;28;20033;-72
2023/06/14 14:06:21;;;;;;;5.72;4.30;;;;;;;27.38;100.00;100084.22;5052637;28;20100;-71